»·PEaware :: N2102W KSNA-KBUR

N2102W :: KSNA-KBUR

FLIGHT INFORMATION

Flight Status: Arrived
Operator: Privately registered:
United States
More flights under this callsign
Pilot: Eric G. (5941)
Aircraft: DASSAULT AVIATION FALCON 50
(FA50)
More flights by this aircraft type
Origin: KSNA John Wayne-Orange Co
United States
Destination: KBUR Bob Hope-Burbank
United States
More flights between these airports :: More routes between these airports
Route: SLI V23 LAX LAX316 SILEX
File this flight plan on PilotEdge
Remarks: NA
Altitude:
(Current/Filed)
6,000ft
Speed:
(Current/Filed)
250kts
Departed: 15-Jul-20 06:06 PM
Arrived: 15-Jul-20 06:32 PM
Distance/Time
Traveled:
61nm/0:26
Distance/Time
To Go:
Arrived

Flight Plot

Page will automatically refresh every two minutes.


Map Options




Map Legend


Flown Route
Filed Route
Departure Airport
Arrival Airport
Navaid (VOR, NDB)
Fix

Horizontal Profiles

Position Reports

Time Latitude Longitude Heading Altitude Ground
Speed
15-Jul-20 17:46 33.678770 -117.862588 116 61ft 0kts
15-Jul-20 17:47 33.678770 -117.862588 116 61ft 0kts
15-Jul-20 17:48 33.678770 -117.862588 116 61ft 0kts
15-Jul-20 17:49 33.678769 -117.862586 116 61ft 0kts
15-Jul-20 17:50 33.678889 -117.862644 323 61ft 2kts
15-Jul-20 17:51 33.678914 -117.862706 290 61ft 0kts
15-Jul-20 17:52 33.678914 -117.862709 290 61ft 0kts
15-Jul-20 17:53 33.678915 -117.862711 290 61ft 0kts
15-Jul-20 17:54 33.678916 -117.862713 290 61ft 0kts
15-Jul-20 17:55 33.678917 -117.862716 290 61ft 0kts
15-Jul-20 17:56 33.678917 -117.862718 290 61ft 0kts
15-Jul-20 17:57 33.678918 -117.862721 290 61ft 0kts
15-Jul-20 17:58 33.678919 -117.862723 290 61ft 0kts
15-Jul-20 17:59 33.678920 -117.862725 290 61ft 0kts
15-Jul-20 18:00 33.679128 -117.863108 341 61ft 4kts
15-Jul-20 18:01 33.680143 -117.862632 12 61ft 5kts
15-Jul-20 18:02 33.680553 -117.863025 297 61ft 0kts
15-Jul-20 18:03 33.680557 -117.863034 297 61ft 2kts
15-Jul-20 18:04 33.681427 -117.864823 307 61ft 2kts
15-Jul-20 18:05 33.673802 -117.869968 208 62ft 129kts
15-Jul-20 18:06 33.628833 -117.887826 191 1853ft 218kts
15-Jul-20 18:07 33.566199 -117.899724 189 3687ft 245kts
15-Jul-20 18:08 33.494933 -117.909763 185 5098ft 270kts
15-Jul-20 18:09 33.447691 -117.957645 276 5020ft 271kts
15-Jul-20 18:10 33.471430 -118.031509 310 5104ft 259kts
15-Jul-20 18:11 33.529685 -118.081439 326 6018ft 284kts
15-Jul-20 18:12 33.584755 -118.123107 326 6016ft 295kts
15-Jul-20 18:13 33.653708 -118.175142 326 6012ft 284kts
15-Jul-20 18:14 33.715098 -118.230120 319 6010ft 263kts
15-Jul-20 18:15 33.764773 -118.278085 319 6016ft 226kts
15-Jul-20 18:16 33.811868 -118.323795 319 6008ft 235kts
15-Jul-20 18:17 33.861487 -118.371772 319 5709ft 230kts
15-Jul-20 18:18 33.910518 -118.418948 319 4108ft 221kts
15-Jul-20 18:19 33.963601 -118.449374 331 4000ft 203kts
15-Jul-20 18:20 34.015602 -118.482626 330 4010ft 228kts
15-Jul-20 18:21 34.071920 -118.519858 325 3995ft 229kts
15-Jul-20 18:22 34.110152 -118.566671 305 3965ft 154kts
15-Jul-20 18:23 34.139129 -118.617015 306 4019ft 244kts
15-Jul-20 18:24 34.186254 -118.635026 44 4382ft 175kts
15-Jul-20 18:25 34.209365 -118.583563 111 3423ft 192kts
15-Jul-20 18:26 34.200704 -118.529090 95 3211ft 150kts
15-Jul-20 18:27 34.206275 -118.479194 63 3107ft 157kts
15-Jul-20 18:28 34.227547 -118.435968 62 2974ft 136kts
15-Jul-20 18:29 34.243739 -118.393666 81 2454ft 133kts
15-Jul-20 18:30 34.225612 -118.363910 173 1079ft 126kts
15-Jul-20 18:31 34.201335 -118.357441 167 726ft 10kts
15-Jul-20 18:32 34.198868 -118.357612 265 726ft 0kts
15-Jul-20 18:33 34.199357 -118.358179 304 726ft 2kts
15-Jul-20 18:34 34.199688 -118.359230 265 726ft 0kts
15-Jul-20 18:35 34.263837 -116.846798 269 6757ft 0kts
15-Jul-20 18:36 34.263837 -116.846799 269 6757ft 0kts
15-Jul-20 18:37 34.263837 -116.846800 269 6757ft 0kts
15-Jul-20 18:38 34.263837 -116.846801 269 6757ft 0kts
15-Jul-20 18:39 34.263794 -116.853492 269 6757ft 105kts
15-Jul-20 18:40 34.257873 -116.908104 223 8333ft 220kts
15-Jul-20 18:41 34.224621 -116.860383 101 9298ft 263kts
15-Jul-20 18:42 34.224176 -116.773187 78 9088ft 266kts
15-Jul-20 18:43 34.278471 -116.759223 283 8219ft 215kts
15-Jul-20 18:44 34.264430 -116.815355 264 7457ft 153kts
15-Jul-20 18:45 34.263794 -116.858893 269 6757ft 78kts

Navigation Log

Ident Type
Flight plan parsing failed, navigation log unavailable